Portada
METAR-TAF:

METAR-TAF

Aeroports :

Wattisham, Anglaterra

latitud: 52-07N, longitud: 000-58E, altitud: 87 m

Observació

L'informe es va fer fa 32 minuts, a les 08:20 UTC
Vent 10 kt del Oest/Sud-Oest
Temperatura 17°C
Humitat 68%
Pressió 1024 hPa
Visibilitat 10 km o més
sense núvols per sota de 1500 mi sense presència de cumulonimbus.

METAR: EGUW 220820Z 24010KT CAVOK 17/11 Q1024 NOSIG RMK BLU BLU

Hora: 09:52 (08:52 UTC)

Pronòstic

L'informe es va fer fa 1 hora i 21 minuts, a les 07:31 UTC
Pronòstic vàlid del 22 a les 09 UTC al 22 a les 18 UTC
Vent 10 kt del Sud-Oest
Visibilitat 10 km o més
Escasses núvols a una alçada de 3000 ft

TAF: EGUW 220731Z 2209/2218 23010KT 9999 FEW030

Observacions i pronòstics meteorològics de més de 4000 aeroports (METAR i TAF).

Les estacions disponibles són els punts grocs i vermells al mapa.

Posi el ratolí al punt desitjat per veure el nom de l'estació.

Feu clic per veure les observacions i els pronòstics meteorològics.

Per canviar el mapa: feu clic els botons verds amb una creu de color negre per apropar; al botó verd amb un guió per allunyar la imatge; o en les fletxes verdes per a mapes adjacents.


METAR-TAF: